Dickinson, ND

10:31 PM MDT on August 26, 2016 (GMT -0600)
Southview | | Change Station

Elev 2434 ft 46.86 °N, 102.78 °W | Updated 2 minutes ago

Scattered Clouds
Scattered Clouds
57.3 °F
Feels Like 57.3 °F
N
0.0
Wind Variable Wind from SW

Today
High -- | Low -- °F
--% Chance of Precip.
Yesterday
High -- | Low -- °F
Precip. -- in
Pressure 29.96 in
Visibility 10.0 miles
Clouds Few 9000 ft
Scattered Clouds 11000 ft
Dew Point 50 °F
Humidity 77%
Rainfall 0.07 in
Snow Depth Not available.
6:03 AM 7:40 PM
Waning Crescent, 28% visible
METAR KDIK 270356Z AUTO 25007KT 10SM FEW090 SCT110 13/09 A2998 RMK AO2 SLP144 T01280094
Pressure 29.96 in
Visibility 10.0 miles
Clouds Few 9000 ft
Scattered Clouds 11000 ft
Dew Point 50 °F
Humidity 77%
Rainfall 0.07 in
Snow Depth Not available.
6:03 AM 7:40 PM
Waning Crescent, 28% visible
METAR KDIK 270356Z AUTO 25007KT 10SM FEW090 SCT110 13/09 A2998 RMK AO2 SLP144 T01280094

10-Day Weather Forecast

Almanac

Astronomy

Aug. 26, 2016 Rise Set
Actual Time
Civil Twilight
Nautical Twilight
Astronomical Twilight
Moon
Length of Visible Light
Length of Day
Tomorrow will be .
, % of the Moon is Illuminated

Today's Extremes

State Highs State Lows

Community

WunderPhotos

Upload Photos

1,935,299 photos uploaded!

WunderBlog® & News

Nearby

Air Quality

  Air Quality AQ Index Pollutant
Not available.

Snow Depth

Station Depth Elevation

Earthquake Activity

City Distance Mag. Time & Date
Minimum magnitude displayed is 2.5.

Coastal Water Temperatures

Place Temperature

Stations

Nearby Weather Stations

Station Location Temp. Windchill Dew Point Humidity Wind Precip. Elev Updated Type
                   

Watches & Warnings

There are currently no watches in effect.